sensor_id;sensor_type;location;lat;lon;timestamp;temperature;humidity
21734;DHT22;11029;47.820;10.534;2023-02-28T00:00:33;-4.30;79.80
21734;DHT22;11029;47.820;10.534;2023-02-28T00:03:00;-4.30;79.40
21734;DHT22;11029;47.820;10.534;2023-02-28T00:05:27;-4.20;79.50
21734;DHT22;11029;47.820;10.534;2023-02-28T00:07:54;-4.30;79.00
21734;DHT22;11029;47.820;10.534;2023-02-28T00:10:26;-4.20;79.40
21734;DHT22;11029;47.820;10.534;2023-02-28T00:12:55;-4.30;79.00
21734;DHT22;11029;47.820;10.534;2023-02-28T00:15:23;-4.20;79.30
21734;DHT22;11029;47.820;10.534;2023-02-28T00:17:51;-4.30;78.70
21734;DHT22;11029;47.820;10.534;2023-02-28T00:20:18;-4.30;79.00
21734;DHT22;11029;47.820;10.534;2023-02-28T00:22:48;-4.30;78.80
21734;DHT22;11029;47.820;10.534;2023-02-28T00:25:18;-4.30;78.90
21734;DHT22;11029;47.820;10.534;2023-02-28T00:27:46;-4.30;79.10
21734;DHT22;11029;47.820;10.534;2023-02-28T00:30:17;-4.40;78.80
21734;DHT22;11029;47.820;10.534;2023-02-28T00:32:44;-4.30;79.10
21734;DHT22;11029;47.820;10.534;2023-02-28T00:35:11;-4.20;78.60
21734;DHT22;11029;47.820;10.534;2023-02-28T00:37:40;-4.40;78.70
21734;DHT22;11029;47.820;10.534;2023-02-28T00:40:08;-4.40;78.60
21734;DHT22;11029;47.820;10.534;2023-02-28T00:42:36;-4.40;78.90
21734;DHT22;11029;47.820;10.534;2023-02-28T00:45:03;-4.40;78.90
21734;DHT22;11029;47.820;10.534;2023-02-28T00:47:31;-4.40;79.00
21734;DHT22;11029;47.820;10.534;2023-02-28T00:49:58;-4.40;78.90
21734;DHT22;11029;47.820;10.534;2023-02-28T00:52:25;-4.40;79.10
21734;DHT22;11029;47.820;10.534;2023-02-28T00:54:54;-4.40;79.00
21734;DHT22;11029;47.820;10.534;2023-02-28T00:57:21;-4.40;78.80
21734;DHT22;11029;47.820;10.534;2023-02-28T00:59:47;-4.30;78.60
21734;DHT22;11029;47.820;10.534;2023-02-28T01:02:14;-4.30;78.60
21734;DHT22;11029;47.820;10.534;2023-02-28T01:04:41;-4.30;78.30
21734;DHT22;11029;47.820;10.534;2023-02-28T01:07:08;-4.40;78.50
21734;DHT22;11029;47.820;10.534;2023-02-28T01:09:35;-4.40;78.90
21734;DHT22;11029;47.820;10.534;2023-02-28T01:12:02;-4.50;78.60
21734;DHT22;11029;47.820;10.534;2023-02-28T01:14:29;-4.60;78.90
21734;DHT22;11029;47.820;10.534;2023-02-28T01:16:55;-4.60;79.20
21734;DHT22;11029;47.820;10.534;2023-02-28T01:19:24;-4.60;79.50
21734;DHT22;11029;47.820;10.534;2023-02-28T01:21:51;-4.60;79.60
21734;DHT22;11029;47.820;10.534;2023-02-28T01:24:17;-4.50;79.40
21734;DHT22;11029;47.820;10.534;2023-02-28T01:26:44;-4.50;79.30
21734;DHT22;11029;47.820;10.534;2023-02-28T01:29:11;-4.50;79.00
21734;DHT22;11029;47.820;10.534;2023-02-28T01:31:38;-4.40;79.00
21734;DHT22;11029;47.820;10.534;2023-02-28T01:34:07;-4.50;78.80
21734;DHT22;11029;47.820;10.534;2023-02-28T01:36:34;-4.50;78.90
21734;DHT22;11029;47.820;10.534;2023-02-28T01:39:00;-4.50;79.30
21734;DHT22;11029;47.820;10.534;2023-02-28T01:41:30;-4.40;78.90
21734;DHT22;11029;47.820;10.534;2023-02-28T01:44:53;-4.40;78.60
21734;DHT22;11029;47.820;10.534;2023-02-28T01:46:55;-4.40;78.80
21734;DHT22;11029;47.820;10.534;2023-02-28T01:49:21;-4.40;78.30
21734;DHT22;11029;47.820;10.534;2023-02-28T01:51:50;-4.40;78.50
21734;DHT22;11029;47.820;10.534;2023-02-28T01:54:26;-4.40;78.70
21734;DHT22;11029;47.820;10.534;2023-02-28T01:57:00;-4.40;78.70
21734;DHT22;11029;47.820;10.534;2023-02-28T01:59:38;-4.30;78.70
21734;DHT22;11029;47.820;10.534;2023-02-28T02:02:07;-4.30;77.70
21734;DHT22;11029;47.820;10.534;2023-02-28T02:04:51;-4.30;78.10
21734;DHT22;11029;47.820;10.534;2023-02-28T02:07:19;-4.20;78.40
21734;DHT22;11029;47.820;10.534;2023-02-28T02:09:46;-4.20;77.90
21734;DHT22;11029;47.820;10.534;2023-02-28T02:12:41;-4.40;77.80
21734;DHT22;11029;47.820;10.534;2023-02-28T02:15:22;-4.40;78.10
21734;DHT22;11029;47.820;10.534;2023-02-28T02:17:53;-4.30;78.30
21734;DHT22;11029;47.820;10.534;2023-02-28T02:20:38;-4.30;78.30
21734;DHT22;11029;47.820;10.534;2023-02-28T02:26:51;-4.30;78.00
21734;DHT22;11029;47.820;10.534;2023-02-28T02:34:59;-4.30;77.90
21734;DHT22;11029;47.820;10.534;2023-02-28T02:37:42;-4.30;77.70
21734;DHT22;11029;47.820;10.534;2023-02-28T02:40:19;-4.20;78.20
21734;DHT22;11029;47.820;10.534;2023-02-28T02:43:01;-4.20;77.50
21734;DHT22;11029;47.820;10.534;2023-02-28T02:45:42;-4.30;77.50
21734;DHT22;11029;47.820;10.534;2023-02-28T02:48:16;-4.30;77.70
21734;DHT22;11029;47.820;10.534;2023-02-28T02:50:50;-4.30;77.80
21734;DHT22;11029;47.820;10.534;2023-02-28T02:53:21;-4.30;78.20
21734;DHT22;11029;47.820;10.534;2023-02-28T02:55:51;-4.20;77.90
21734;DHT22;11029;47.820;10.534;2023-02-28T02:58:26;-4.20;77.20
21734;DHT22;11029;47.820;10.534;2023-02-28T03:01:00;-4.30;77.40
21734;DHT22;11029;47.820;10.534;2023-02-28T03:03:28;-4.30;77.40
21734;DHT22;11029;47.820;10.534;2023-02-28T03:05:58;-4.20;77.60
21734;DHT22;11029;47.820;10.534;2023-02-28T03:08:26;-4.20;77.90
21734;DHT22;11029;47.820;10.534;2023-02-28T03:11:01;-4.30;77.60
21734;DHT22;11029;47.820;10.534;2023-02-28T03:13:54;-4.30;77.60
21734;DHT22;11029;47.820;10.534;2023-02-28T03:17:09;-4.30;77.60
21734;DHT22;11029;47.820;10.534;2023-02-28T03:19:52;-4.20;78.00
21734;DHT22;11029;47.820;10.534;2023-02-28T03:22:58;-4.30;77.70
21734;DHT22;11029;47.820;10.534;2023-02-28T03:25:37;-4.30;77.70
21734;DHT22;11029;47.820;10.534;2023-02-28T03:28:10;-4.30;77.80
21734;DHT22;11029;47.820;10.534;2023-02-28T03:30:51;-4.30;77.90
21734;DHT22;11029;47.820;10.534;2023-02-28T03:33:25;-4.30;78.30
21734;DHT22;11029;47.820;10.534;2023-02-28T03:35:57;-4.30;77.80
21734;DHT22;11029;47.820;10.534;2023-02-28T03:38:48;-4.30;78.50
21734;DHT22;11029;47.820;10.534;2023-02-28T03:41:22;-4.30;78.30
21734;DHT22;11029;47.820;10.534;2023-02-28T03:44:00;-4.30;78.50
21734;DHT22;11029;47.820;10.534;2023-02-28T03:46:33;-4.30;78.70
21734;DHT22;11029;47.820;10.534;2023-02-28T03:49:06;-4.30;78.40
21734;DHT22;11029;47.820;10.534;2023-02-28T03:51:35;-4.40;78.30
21734;DHT22;11029;47.820;10.534;2023-02-28T03:54:13;-4.40;78.40
21734;DHT22;11029;47.820;10.534;2023-02-28T03:56:53;-4.40;78.60
21734;DHT22;11029;47.820;10.534;2023-02-28T03:59:44;-4.40;78.50
21734;DHT22;11029;47.820;10.534;2023-02-28T04:02:12;-4.40;78.30
21734;DHT22;11029;47.820;10.534;2023-02-28T04:04:39;-4.50;78.30
21734;DHT22;11029;47.820;10.534;2023-02-28T04:07:11;-4.50;78.40
21734;DHT22;11029;47.820;10.534;2023-02-28T04:09:38;-4.70;78.90
21734;DHT22;11029;47.820;10.534;2023-02-28T04:12:05;-4.70;79.30
21734;DHT22;11029;47.820;10.534;2023-02-28T04:14:32;-4.60;79.50
21734;DHT22;11029;47.820;10.534;2023-02-28T04:16:59;-4.70;79.20
21734;DHT22;11029;47.820;10.534;2023-02-28T04:19:25;-4.70;79.40
21734;DHT22;11029;47.820;10.534;2023-02-28T04:21:53;-4.70;79.50
21734;DHT22;11029;47.820;10.534;2023-02-28T04:24:22;-4.70;79.90
21734;DHT22;11029;47.820;10.534;2023-02-28T04:26:52;-4.70;79.40
21734;DHT22;11029;47.820;10.534;2023-02-28T04:29:24;-4.70;79.50
21734;DHT22;11029;47.820;10.534;2023-02-28T04:31:52;-4.60;79.90
21734;DHT22;11029;47.820;10.534;2023-02-28T04:34:27;-4.70;79.50
21734;DHT22;11029;47.820;10.534;2023-02-28T04:36:54;-4.70;79.50
21734;DHT22;11029;47.820;10.534;2023-02-28T04:39:37;-4.70;79.40
21734;DHT22;11029;47.820;10.534;2023-02-28T04:42:05;-4.70;79.40
21734;DHT22;11029;47.820;10.534;2023-02-28T04:44:32;-4.70;79.40
21734;DHT22;11029;47.820;10.534;2023-02-28T04:46:59;-4.70;79.00
21734;DHT22;11029;47.820;10.534;2023-02-28T04:49:26;-4.70;79.30
21734;DHT22;11029;47.820;10.534;2023-02-28T04:51:53;-4.70;79.40
21734;DHT22;11029;47.820;10.534;2023-02-28T04:54:20;-4.80;80.10
21734;DHT22;11029;47.820;10.534;2023-02-28T04:56:47;-4.70;80.10
21734;DHT22;11029;47.820;10.534;2023-02-28T04:59:16;-4.60;80.00
21734;DHT22;11029;47.820;10.534;2023-02-28T05:01:48;-4.50;79.70
21734;DHT22;11029;47.820;10.534;2023-02-28T05:04:16;-4.50;78.90
21734;DHT22;11029;47.820;10.534;2023-02-28T05:06:44;-4.50;78.80
21734;DHT22;11029;47.820;10.534;2023-02-28T05:09:11;-4.50;78.90
21734;DHT22;11029;47.820;10.534;2023-02-28T05:11:41;-4.50;78.60
21734;DHT22;11029;47.820;10.534;2023-02-28T05:14:13;-4.40;78.10
21734;DHT22;11029;47.820;10.534;2023-02-28T05:16:40;-4.40;78.40
21734;DHT22;11029;47.820;10.534;2023-02-28T05:19:07;-4.40;78.30
21734;DHT22;11029;47.820;10.534;2023-02-28T05:24:05;-4.40;78.30
21734;DHT22;11029;47.820;10.534;2023-02-28T05:26:37;-4.40;78.40
21734;DHT22;11029;47.820;10.534;2023-02-28T05:29:04;-4.40;78.40
21734;DHT22;11029;47.820;10.534;2023-02-28T05:31:32;-4.40;78.00
21734;DHT22;11029;47.820;10.534;2023-02-28T05:33:59;-4.50;77.80
21734;DHT22;11029;47.820;10.534;2023-02-28T05:36:26;-4.50;77.80
21734;DHT22;11029;47.820;10.534;2023-02-28T05:38:53;-4.60;78.40
21734;DHT22;11029;47.820;10.534;2023-02-28T05:41:20;-4.70;78.90
21734;DHT22;11029;47.820;10.534;2023-02-28T05:43:47;-4.70;78.90
21734;DHT22;11029;47.820;10.534;2023-02-28T05:46:15;-4.70;79.10
21734;DHT22;11029;47.820;10.534;2023-02-28T05:48:42;-4.70;79.50
21734;DHT22;11029;47.820;10.534;2023-02-28T05:51:09;-4.70;79.20
21734;DHT22;11029;47.820;10.534;2023-02-28T05:53:36;-4.60;79.00
21734;DHT22;11029;47.820;10.534;2023-02-28T05:56:04;-4.60;78.60
21734;DHT22;11029;47.820;10.534;2023-02-28T05:58:31;-4.70;78.90
21734;DHT22;11029;47.820;10.534;2023-02-28T06:01:19;-4.80;78.90
21734;DHT22;11029;47.820;10.534;2023-02-28T06:03:47;-4.80;79.20
21734;DHT22;11029;47.820;10.534;2023-02-28T06:06:13;-4.90;79.50
21734;DHT22;11029;47.820;10.534;2023-02-28T06:08:40;-4.80;79.70
21734;DHT22;11029;47.820;10.534;2023-02-28T06:11:07;-4.90;79.40
21734;DHT22;11029;47.820;10.534;2023-02-28T06:13:34;-4.90;80.00
21734;DHT22;11029;47.820;10.534;2023-02-28T06:16:01;-4.90;80.10
21734;DHT22;11029;47.820;10.534;2023-02-28T06:18:27;-5.00;80.40
21734;DHT22;11029;47.820;10.534;2023-02-28T06:20:54;-5.00;80.30
21734;DHT22;11029;47.820;10.534;2023-02-28T06:23:22;-5.00;80.70
21734;DHT22;11029;47.820;10.534;2023-02-28T06:25:49;-5.00;80.20
21734;DHT22;11029;47.820;10.534;2023-02-28T06:28:16;-4.90;80.70
21734;DHT22;11029;47.820;10.534;2023-02-28T06:30:43;-4.80;79.90
21734;DHT22;11029;47.820;10.534;2023-02-28T06:33:12;-4.80;79.60
21734;DHT22;11029;47.820;10.534;2023-02-28T06:35:38;-4.70;80.00
21734;DHT22;11029;47.820;10.534;2023-02-28T06:38:05;-4.60;79.60
21734;DHT22;11029;47.820;10.534;2023-02-28T06:40:32;-4.60;79.60
21734;DHT22;11029;47.820;10.534;2023-02-28T06:43:02;-4.60;79.30
21734;DHT22;11029;47.820;10.534;2023-02-28T06:45:28;-4.60;79.30
21734;DHT22;11029;47.820;10.534;2023-02-28T06:47:55;-4.60;78.90
21734;DHT22;11029;47.820;10.534;2023-02-28T06:50:22;-4.60;79.20
21734;DHT22;11029;47.820;10.534;2023-02-28T06:52:48;-4.50;79.30
21734;DHT22;11029;47.820;10.534;2023-02-28T06:55:20;-4.40;79.00
21734;DHT22;11029;47.820;10.534;2023-02-28T06:57:47;-4.40;78.40
21734;DHT22;11029;47.820;10.534;2023-02-28T07:00:14;-4.30;79.00
21734;DHT22;11029;47.820;10.534;2023-02-28T07:02:40;-4.30;78.40
21734;DHT22;11029;47.820;10.534;2023-02-28T07:05:07;-4.30;78.20
21734;DHT22;11029;47.820;10.534;2023-02-28T07:07:34;-4.40;78.10
21734;DHT22;11029;47.820;10.534;2023-02-28T07:10:02;-4.40;78.40
21734;DHT22;11029;47.820;10.534;2023-02-28T07:12:29;-4.30;78.70
21734;DHT22;11029;47.820;10.534;2023-02-28T07:14:56;-4.30;78.40
21734;DHT22;11029;47.820;10.534;2023-02-28T07:17:23;-4.20;78.40
21734;DHT22;11029;47.820;10.534;2023-02-28T07:19:49;-4.10;77.80
21734;DHT22;11029;47.820;10.534;2023-02-28T07:22:16;-4.10;77.40
21734;DHT22;11029;47.820;10.534;2023-02-28T07:24:43;-4.20;77.10
21734;DHT22;11029;47.820;10.534;2023-02-28T07:27:10;-4.10;76.80
21734;DHT22;11029;47.820;10.534;2023-02-28T07:29:36;-4.10;77.10
21734;DHT22;11029;47.820;10.534;2023-02-28T07:32:04;-4.10;77.40
21734;DHT22;11029;47.820;10.534;2023-02-28T07:34:31;-4.00;77.10
21734;DHT22;11029;47.820;10.534;2023-02-28T07:36:58;-4.00;77.40
21734;DHT22;11029;47.820;10.534;2023-02-28T07:39:24;-4.10;77.70
21734;DHT22;11029;47.820;10.534;2023-02-28T07:41:51;-4.10;78.20
21734;DHT22;11029;47.820;10.534;2023-02-28T07:44:22;-4.00;78.40
21734;DHT22;11029;47.820;10.534;2023-02-28T07:46:49;-4.00;77.20
21734;DHT22;11029;47.820;10.534;2023-02-28T07:49:15;-4.00;76.90
21734;DHT22;11029;47.820;10.534;2023-02-28T07:51:42;-4.00;77.50
21734;DHT22;11029;47.820;10.534;2023-02-28T07:54:09;-3.90;77.20
21734;DHT22;11029;47.820;10.534;2023-02-28T07:56:35;-3.90;77.00
21734;DHT22;11029;47.820;10.534;2023-02-28T07:59:02;-3.80;77.70
21734;DHT22;11029;47.820;10.534;2023-02-28T08:01:29;-3.80;77.40
21734;DHT22;11029;47.820;10.534;2023-02-28T08:03:56;-3.60;77.20
21734;DHT22;11029;47.820;10.534;2023-02-28T08:06:24;-3.50;76.10
21734;DHT22;11029;47.820;10.534;2023-02-28T08:08:52;-3.60;76.40
21734;DHT22;11029;47.820;10.534;2023-02-28T08:11:19;-3.50;76.00
21734;DHT22;11029;47.820;10.534;2023-02-28T08:13:46;-3.50;75.80
21734;DHT22;11029;47.820;10.534;2023-02-28T08:16:13;-3.40;75.60
21734;DHT22;11029;47.820;10.534;2023-02-28T08:18:44;-3.40;75.40
21734;DHT22;11029;47.820;10.534;2023-02-28T08:21:11;-3.40;75.10
21734;DHT22;11029;47.820;10.534;2023-02-28T08:23:38;-3.40;75.20
21734;DHT22;11029;47.820;10.534;2023-02-28T08:26:05;-3.40;75.10
21734;DHT22;11029;47.820;10.534;2023-02-28T08:28:32;-3.30;75.20
21734;DHT22;11029;47.820;10.534;2023-02-28T08:30:59;-3.20;75.00
21734;DHT22;11029;47.820;10.534;2023-02-28T08:33:27;-3.10;74.30
21734;DHT22;11029;47.820;10.534;2023-02-28T08:35:55;-3.10;74.40
21734;DHT22;11029;47.820;10.534;2023-02-28T08:38:22;-3.10;74.40
21734;DHT22;11029;47.820;10.534;2023-02-28T08:40:49;-3.10;73.80
21734;DHT22;11029;47.820;10.534;2023-02-28T08:43:16;-3.00;74.00
21734;DHT22;11029;47.820;10.534;2023-02-28T08:45:43;-3.00;74.10
21734;DHT22;11029;47.820;10.534;2023-02-28T08:48:10;-2.80;74.10
21734;DHT22;11029;47.820;10.534;2023-02-28T08:50:36;-2.70;73.50
21734;DHT22;11029;47.820;10.534;2023-02-28T08:53:03;-2.60;73.10
21734;DHT22;11029;47.820;10.534;2023-02-28T08:55:30;-2.50;72.20
21734;DHT22;11029;47.820;10.534;2023-02-28T08:57:57;-2.40;72.60
21734;DHT22;11029;47.820;10.534;2023-02-28T09:00:24;-2.40;71.10
21734;DHT22;11029;47.820;10.534;2023-02-28T09:02:51;-2.50;72.60
21734;DHT22;11029;47.820;10.534;2023-02-28T09:05:18;-2.50;72.00
21734;DHT22;11029;47.820;10.534;2023-02-28T09:07:45;-2.50;72.00
21734;DHT22;11029;47.820;10.534;2023-02-28T09:10:12;-2.60;72.30
21734;DHT22;11029;47.820;10.534;2023-02-28T09:12:38;-2.50;72.40
21734;DHT22;11029;47.820;10.534;2023-02-28T09:15:06;-2.40;72.40
21734;DHT22;11029;47.820;10.534;2023-02-28T09:17:33;-2.40;72.10
21734;DHT22;11029;47.820;10.534;2023-02-28T09:19:59;-2.30;71.90
21734;DHT22;11029;47.820;10.534;2023-02-28T09:22:26;-2.30;71.30
21734;DHT22;11029;47.820;10.534;2023-02-28T09:24:53;-2.30;71.50
21734;DHT22;11029;47.820;10.534;2023-02-28T09:27:19;-2.20;72.10
21734;DHT22;11029;47.820;10.534;2023-02-28T09:29:46;-2.00;70.80
21734;DHT22;11029;47.820;10.534;2023-02-28T09:32:13;-2.00;70.20
21734;DHT22;11029;47.820;10.534;2023-02-28T09:34:39;-1.90;70.90
21734;DHT22;11029;47.820;10.534;2023-02-28T09:37:06;-1.70;70.00
21734;DHT22;11029;47.820;10.534;2023-02-28T09:39:33;-1.50;68.10
21734;DHT22;11029;47.820;10.534;2023-02-28T09:42:02;-1.50;68.30
21734;DHT22;11029;47.820;10.534;2023-02-28T09:44:38;-1.50;68.70
21734;DHT22;11029;47.820;10.534;2023-02-28T09:47:31;-1.30;68.30
21734;DHT22;11029;47.820;10.534;2023-02-28T09:50:28;-1.20;68.00
21734;DHT22;11029;47.820;10.534;2023-02-28T09:52:56;-1.00;67.20
21734;DHT22;11029;47.820;10.534;2023-02-28T09:55:57;-1.10;67.70
21734;DHT22;11029;47.820;10.534;2023-02-28T09:58:47;-1.00;67.90
21734;DHT22;11029;47.820;10.534;2023-02-28T10:01:31;-0.90;67.10
21734;DHT22;11029;47.820;10.534;2023-02-28T10:06:52;-0.80;67.70
21734;DHT22;11029;47.820;10.534;2023-02-28T10:09:30;-0.60;66.90
21734;DHT22;11029;47.820;10.534;2023-02-28T10:12:05;-0.50;66.50
21734;DHT22;11029;47.820;10.534;2023-02-28T10:14:34;-0.50;66.30
21734;DHT22;11029;47.820;10.534;2023-02-28T10:17:13;-0.50;66.60
21734;DHT22;11029;47.820;10.534;2023-02-28T10:20:01;-0.50;66.40
21734;DHT22;11029;47.820;10.534;2023-02-28T10:23:15;-0.50;66.10
21734;DHT22;11029;47.820;10.534;2023-02-28T10:25:48;-0.50;66.50
21734;DHT22;11029;47.820;10.534;2023-02-28T10:28:18;-0.80;67.00
21734;DHT22;11029;47.820;10.534;2023-02-28T10:30:50;-0.70;67.60
21734;DHT22;11029;47.820;10.534;2023-02-28T10:33:21;-0.70;66.80
21734;DHT22;11029;47.820;10.534;2023-02-28T10:35:49;-0.80;67.50
21734;DHT22;11029;47.820;10.534;2023-02-28T10:38:19;-0.60;67.70
21734;DHT22;11029;47.820;10.534;2023-02-28T10:40:46;-0.50;66.90
21734;DHT22;11029;47.820;10.534;2023-02-28T10:45:40;-0.50;66.10
21734;DHT22;11029;47.820;10.534;2023-02-28T10:56:00;-0.80;68.00
21734;DHT22;11029;47.820;10.534;2023-02-28T10:58:31;-0.80;68.40
21734;DHT22;11029;47.820;10.534;2023-02-28T11:00:59;-0.80;68.20
21734;DHT22;11029;47.820;10.534;2023-02-28T11:03:32;-0.70;67.50
21734;DHT22;11029;47.820;10.534;2023-02-28T11:06:06;-0.80;67.40
21734;DHT22;11029;47.820;10.534;2023-02-28T11:08:44;-0.80;67.60
21734;DHT22;11029;47.820;10.534;2023-02-28T11:11:11;-0.80;67.80
21734;DHT22;11029;47.820;10.534;2023-02-28T11:13:38;-0.90;67.80
21734;DHT22;11029;47.820;10.534;2023-02-28T11:16:07;-1.00;68.50
21734;DHT22;11029;47.820;10.534;2023-02-28T11:18:43;-0.90;68.60
21734;DHT22;11029;47.820;10.534;2023-02-28T11:24:04;-0.60;67.70
21734;DHT22;11029;47.820;10.534;2023-02-28T11:26:46;-0.40;66.80
21734;DHT22;11029;47.820;10.534;2023-02-28T11:29:30;-0.40;66.00
21734;DHT22;11029;47.820;10.534;2023-02-28T11:34:29;-0.50;66.50
21734;DHT22;11029;47.820;10.534;2023-02-28T11:36:58;-0.50;66.90
21734;DHT22;11029;47.820;10.534;2023-02-28T11:39:26;-0.60;66.80
21734;DHT22;11029;47.820;10.534;2023-02-28T11:42:07;-0.70;67.60
21734;DHT22;11029;47.820;10.534;2023-02-28T11:44:40;-0.50;67.20
21734;DHT22;11029;47.820;10.534;2023-02-28T11:47:15;-0.60;66.70
21734;DHT22;11029;47.820;10.534;2023-02-28T11:50:16;-0.70;67.90
21734;DHT22;11029;47.820;10.534;2023-02-28T11:55:35;-0.90;68.70
21734;DHT22;11029;47.820;10.534;2023-02-28T11:58:24;-0.80;68.50
21734;DHT22;11029;47.820;10.534;2023-02-28T12:01:25;-0.80;68.10
21734;DHT22;11029;47.820;10.534;2023-02-28T12:18:49;-0.80;69.00
21734;DHT22;11029;47.820;10.534;2023-02-28T12:22:00;-0.80;68.30
21734;DHT22;11029;47.820;10.534;2023-02-28T12:27:13;-0.90;69.00
21734;DHT22;11029;47.820;10.534;2023-02-28T12:29:58;-0.90;68.80
21734;DHT22;11029;47.820;10.534;2023-02-28T12:32:33;-0.90;68.60
21734;DHT22;11029;47.820;10.534;2023-02-28T12:37:37;-0.90;68.50
21734;DHT22;11029;47.820;10.534;2023-02-28T12:40:14;-0.90;68.90
21734;DHT22;11029;47.820;10.534;2023-02-28T12:42:58;-0.90;68.30
21734;DHT22;11029;47.820;10.534;2023-02-28T12:45:39;-0.90;68.40
21734;DHT22;11029;47.820;10.534;2023-02-28T12:48:09;-0.90;68.90
21734;DHT22;11029;47.820;10.534;2023-02-28T12:50:40;-0.90;69.20
21734;DHT22;11029;47.820;10.534;2023-02-28T12:55:59;-0.60;68.60
21734;DHT22;11029;47.820;10.534;2023-02-28T12:58:41;-0.60;68.10
21734;DHT22;11029;47.820;10.534;2023-02-28T13:04:38;-0.60;68.10
21734;DHT22;11029;47.820;10.534;2023-02-28T13:10:24;-0.60;67.90
21734;DHT22;11029;47.820;10.534;2023-02-28T13:13:03;-0.70;67.80
21734;DHT22;11029;47.820;10.534;2023-02-28T13:15:30;-0.70;68.30
21734;DHT22;11029;47.820;10.534;2023-02-28T13:18:01;-0.70;67.80
21734;DHT22;11029;47.820;10.534;2023-02-28T13:20:35;-0.80;67.90
21734;DHT22;11029;47.820;10.534;2023-02-28T13:23:03;-0.80;68.30
21734;DHT22;11029;47.820;10.534;2023-02-28T13:28:12;-1.00;68.50
21734;DHT22;11029;47.820;10.534;2023-02-28T13:33:31;-1.00;69.00
21734;DHT22;11029;47.820;10.534;2023-02-28T13:38:45;-0.70;69.30
21734;DHT22;11029;47.820;10.534;2023-02-28T13:57:53;-0.90;68.90
21734;DHT22;11029;47.820;10.534;2023-02-28T14:03:31;-0.80;69.30
21734;DHT22;11029;47.820;10.534;2023-02-28T14:06:22;-0.80;68.50
21734;DHT22;11029;47.820;10.534;2023-02-28T14:11:35;-0.90;68.40
21734;DHT22;11029;47.820;10.534;2023-02-28T14:14:05;-1.10;69.00
21734;DHT22;11029;47.820;10.534;2023-02-28T14:16:38;-1.40;70.50
21734;DHT22;11029;47.820;10.534;2023-02-28T14:19:20;-1.30;71.20
21734;DHT22;11029;47.820;10.534;2023-02-28T14:22:00;-1.20;70.80
21734;DHT22;11029;47.820;10.534;2023-02-28T14:27:38;-1.00;69.50
21734;DHT22;11029;47.820;10.534;2023-02-28T14:30:43;-0.90;68.90
21734;DHT22;11029;47.820;10.534;2023-02-28T14:33:33;-0.90;69.10
21734;DHT22;11029;47.820;10.534;2023-02-28T14:36:10;-0.70;69.10
21734;DHT22;11029;47.820;10.534;2023-02-28T14:41:21;-0.90;69.10
21734;DHT22;11029;47.820;10.534;2023-02-28T14:43:54;-0.90;69.10
21734;DHT22;11029;47.820;10.534;2023-02-28T14:46:22;-1.00;69.40
21734;DHT22;11029;47.820;10.534;2023-02-28T14:48:50;-1.00;70.20
21734;DHT22;11029;47.820;10.534;2023-02-28T14:51:22;-0.90;69.50
21734;DHT22;11029;47.820;10.534;2023-02-28T14:53:59;-0.90;70.00
21734;DHT22;11029;47.820;10.534;2023-02-28T14:56:37;-0.70;69.80
21734;DHT22;11029;47.820;10.534;2023-02-28T14:59:05;-0.50;68.80
21734;DHT22;11029;47.820;10.534;2023-02-28T15:01:32;-0.60;68.00
21734;DHT22;11029;47.820;10.534;2023-02-28T15:04:06;-0.50;68.10
21734;DHT22;11029;47.820;10.534;2023-02-28T15:06:33;-0.40;68.00
21734;DHT22;11029;47.820;10.534;2023-02-28T15:09:17;-0.40;67.80
21734;DHT22;11029;47.820;10.534;2023-02-28T15:11:49;-0.30;68.50
21734;DHT22;11029;47.820;10.534;2023-02-28T15:14:19;-0.20;67.60
21734;DHT22;11029;47.820;10.534;2023-02-28T15:16:52;-0.20;67.10
21734;DHT22;11029;47.820;10.534;2023-02-28T15:19:25;-0.20;66.80
21734;DHT22;11029;47.820;10.534;2023-02-28T15:22:03;-0.20;66.50
21734;DHT22;11029;47.820;10.534;2023-02-28T15:24:37;-0.30;66.70
21734;DHT22;11029;47.820;10.534;2023-02-28T15:27:07;-0.30;67.00
21734;DHT22;11029;47.820;10.534;2023-02-28T15:29:46;-0.20;67.40
21734;DHT22;11029;47.820;10.534;2023-02-28T15:34:55;-0.10;66.20
21734;DHT22;11029;47.820;10.534;2023-02-28T15:37:28;-0.10;67.00
21734;DHT22;11029;47.820;10.534;2023-02-28T15:40:04;-0.10;66.20
21734;DHT22;11029;47.820;10.534;2023-02-28T15:42:31;0.00;66.60
21734;DHT22;11029;47.820;10.534;2023-02-28T15:44:58;0.00;66.40
21734;DHT22;11029;47.820;10.534;2023-02-28T15:47:27;-0.20;67.10
21734;DHT22;11029;47.820;10.534;2023-02-28T15:50:01;-0.20;66.60
21734;DHT22;11029;47.820;10.534;2023-02-28T15:52:41;-0.30;67.10
21734;DHT22;11029;47.820;10.534;2023-02-28T15:55:20;-0.40;67.40
21734;DHT22;11029;47.820;10.534;2023-02-28T15:57:51;-0.50;68.10
21734;DHT22;11029;47.820;10.534;2023-02-28T16:00:22;-0.50;68.20
21734;DHT22;11029;47.820;10.534;2023-02-28T16:02:49;-0.50;68.40
21734;DHT22;11029;47.820;10.534;2023-02-28T16:05:25;-0.60;68.40
21734;DHT22;11029;47.820;10.534;2023-02-28T16:08:06;-0.70;68.60
21734;DHT22;11029;47.820;10.534;2023-02-28T16:10:37;-0.80;68.50
21734;DHT22;11029;47.820;10.534;2023-02-28T16:13:04;-0.80;69.10
21734;DHT22;11029;47.820;10.534;2023-02-28T16:15:37;-0.80;69.10
21734;DHT22;11029;47.820;10.534;2023-02-28T16:18:10;-0.90;69.20
21734;DHT22;11029;47.820;10.534;2023-02-28T16:20:37;-0.90;69.90
21734;DHT22;11029;47.820;10.534;2023-02-28T16:23:04;-0.90;69.40
21734;DHT22;11029;47.820;10.534;2023-02-28T16:25:38;-0.90;69.60
21734;DHT22;11029;47.820;10.534;2023-02-28T16:28:08;-1.00;69.50
21734;DHT22;11029;47.820;10.534;2023-02-28T16:30:38;-1.00;70.00
21734;DHT22;11029;47.820;10.534;2023-02-28T16:33:07;-1.00;70.30
21734;DHT22;11029;47.820;10.534;2023-02-28T16:35:34;-1.00;70.30
21734;DHT22;11029;47.820;10.534;2023-02-28T16:38:01;-1.00;70.10
21734;DHT22;11029;47.820;10.534;2023-02-28T16:40:28;-1.10;70.30
21734;DHT22;11029;47.820;10.534;2023-02-28T16:43:00;-1.10;70.60
21734;DHT22;11029;47.820;10.534;2023-02-28T16:45:31;-1.10;70.60
21734;DHT22;11029;47.820;10.534;2023-02-28T16:47:57;-1.20;70.60
21734;DHT22;11029;47.820;10.534;2023-02-28T16:50:27;-1.20;70.90
21734;DHT22;11029;47.820;10.534;2023-02-28T16:52:54;-1.20;70.70
21734;DHT22;11029;47.820;10.534;2023-02-28T16:55:24;-1.30;70.60
21734;DHT22;11029;47.820;10.534;2023-02-28T16:57:53;-1.40;70.90
21734;DHT22;11029;47.820;10.534;2023-02-28T17:00:20;-1.40;71.10
21734;DHT22;11029;47.820;10.534;2023-02-28T17:02:47;-1.60;71.40
21734;DHT22;11029;47.820;10.534;2023-02-28T17:05:14;-1.60;71.50
21734;DHT22;11029;47.820;10.534;2023-02-28T17:07:42;-1.70;71.60
21734;DHT22;11029;47.820;10.534;2023-02-28T17:10:17;-1.70;71.80
21734;DHT22;11029;47.820;10.534;2023-02-28T17:12:44;-1.80;72.10
21734;DHT22;11029;47.820;10.534;2023-02-28T17:15:12;-1.90;71.80
21734;DHT22;11029;47.820;10.534;2023-02-28T17:17:41;-1.90;72.60
21734;DHT22;11029;47.820;10.534;2023-02-28T17:20:16;-1.90;72.70
21734;DHT22;11029;47.820;10.534;2023-02-28T17:22:43;-2.00;72.40